ADDS METAR Data INFO
IDs: Format: Raw Decoded Include TAF

Data at: 1510 UTC 11 Dec 2017

KGBK 111455Z AUTO 30008KT 10SM BKN042 19/09 A3036 RMK A01
KGBK 111435Z AUTO VRB04KT 10SM SCT042 20/09 A3036 RMK A01
KGBK 111415Z AUTO 30009KT 10SM BKN042 19/09 A3036 RMK A01
KGBK 111355Z AUTO VRB04G10KT 10SM SCT042 19/09 A3036 RMK A01
KGBK 111335Z AUTO 29007KT 10SM BKN042 19/09 A3036 RMK A01
KGBK 111315Z AUTO VRB04KT 10SM BKN042 20/09 A3035 RMK A01
KGBK 111255Z AUTO 30009KT 10SM SCT042 19/09 A3036 RMK A01
KGBK 111235Z AUTO 30008KT 280V360 10SM SCT042 19/09 A3035 RMK A01
KGBK 111215Z AUTO VRB04G11KT 10SM SCT040 19/09 A3035 RMK A01
KGBK 111155Z AUTO 29009KT 10SM SCT040 19/09 A3034 RMK A01
KGBK 111135Z AUTO 29008KT 10SM BKN042 19/09 A3034 RMK A01
KGBK 111115Z AUTO 33007KT 10SM BKN040 18/09 A3033 RMK A01
KGBK 111055Z AUTO 33007KT 10SM SCT040 19/09 A3033 RMK A01
KGBK 111035Z AUTO 31008KT 10SM SCT039 19/09 A3033 RMK A01
KGBK 111015Z AUTO 29007G12KT 10SM BKN039 19/09 A3033 RMK A01
KGBK 110955Z AUTO 31007KT 280V340 10SM BKN039 19/09 A3033 RMK A01
KGBK 110935Z AUTO 32007KT 10SM FEW038 18/09 A3033 RMK A01
KGBK 110915Z AUTO 32007KT 10SM SCT036 19/09 A3033 RMK A01
KGBK 110855Z AUTO 32007KT 10SM SCT036 18/09 A3033 RMK A01
KGBK 110835Z AUTO VRB03KT 10SM BKN036 BKN048 18/09 A3033 RMK A01
KGBK 110815Z AUTO 28007KT 10SM SCT038 SCT049 19/09 A3033 RMK A01
KGBK 110755Z AUTO 28005KT 10SM BKN039 19/09 A3034 RMK A01
KGBK 110735Z AUTO 31006KT 10SM BKN038 19/09 A3033 RMK A01
KGBK 110715Z AUTO 30005KT 10SM FEW037 19/08 A3034 RMK A01
KGBK 110655Z AUTO VRB03KT 10SM FEW037 FEW050 18/08 A3034 RMK A01
KGBK 110635Z AUTO 31008KT 10SM SCT037 18/08 A3035 RMK A01
KGBK 110615Z AUTO VRB05KT 10SM SCT036 18/08 A3035 RMK A01
KGBK 110555Z AUTO 31006KT 10SM SCT037 18/08 A3035 RMK A01
KGBK 110535Z AUTO VRB04KT 10SM BKN037 18/08 A3036 RMK A01
KGBK 110515Z AUTO 33005KT 10SM FEW036 18/08 A3037 RMK A01
KGBK 110455Z AUTO VRB04KT 10SM SCT034 18/08 A3037 RMK A01
KGBK 110435Z AUTO 32007KT 260V340 10SM SCT034 18/08 A3037 RMK A01
KGBK 110415Z AUTO 34005KT 10SM SCT035 18/07 A3038 RMK A01
KGBK 110355Z AUTO VRB04KT 10SM SCT035 18/08 A3038 RMK A01
KGBK 110335Z AUTO 34008KT 10SM FEW034 18/07 A3038 RMK A01
KGBK 110315Z AUTO VRB05G11KT 10SM FEW035 18/06 A3039 RMK A01
KGBK 110255Z AUTO 35004G10KT 10SM SCT035 18/07 A3039 RMK A01
KGBK 110235Z AUTO 00000KT 10SM SCT035 18/08 A3039 RMK A01
KGBK 110215Z AUTO 34009KT 10SM SCT036 18/07 A3039 RMK A01
KGBK 110155Z AUTO VRB05KT 10SM SCT037 17/07 A3039 RMK A01
KGBK 110135Z AUTO 32007KT 280V010 10SM SCT036 18/07 A3038 RMK A01
KGBK 110115Z AUTO VRB03KT 10SM SCT037 17/07 A3039 RMK A01
KGBK 110055Z AUTO 33007G12KT 10SM BKN039 17/07 A3038 RMK A01
KGBK 110035Z AUTO 34009KT 10SM BKN038 17/07 A3038 RMK A01
KGBK 110015Z AUTO 31006G12KT 10SM BKN038 18/08 A3038 RMK A01
KGBK 102355Z AUTO VRB05G12KT 10SM SCT040 18/08 A3038 RMK A01
KGBK 102335Z AUTO 32008G14KT 10SM FEW040 18/08 A3037 RMK A01
KGBK 102315Z AUTO 32007KT 10SM FEW040 18/08 A3036 RMK A01
KGBK 102255Z AUTO VRB05KT 10SM FEW041 19/09 A3036 RMK A01
KGBK 102230Z AUTO 33008KT 10SM SCT041 18/09 A3036 RMK A01
KGBK 102215Z AUTO 30008KT 10SM BKN041 18/08 A3036 RMK A01
KGBK 102155Z AUTO 33007KT 10SM SCT041 18/09 A3035 RMK A01
KGBK 102135Z AUTO 33006G13KT 10SM SCT039 18/09 A3036 RMK A01
KGBK 102115Z AUTO 00000KT 10SM SCT039 19/09 A3036 RMK A01
KGBK 102055Z AUTO 30007G12KT 230V320 10SM SCT040 19/09 A3035 RMK A01
KGBK 102035Z AUTO 00000KT 10SM FEW039 20/09 A3036 RMK A01
KGBK 102015Z AUTO 00000KT 10SM SCT040 19/09 A3036 RMK A01
KGBK 101955Z AUTO 00000KT 10SM FEW039 18/08 A3036 RMK A01
KGBK 101935Z AUTO 00000KT 10SM SCT039 21/09 A3035 RMK A01
KGBK 101915Z AUTO 00000KT 10SM CLR 19/08 A3036 RMK A01
KGBK 101855Z AUTO 33006KT 10SM FEW040 19/09 A3037 RMK A01
KGBK 101835Z AUTO 00000KT 10SM SCT040 20/08 A3038 RMK A01
KGBK 101815Z AUTO 34006KT 10SM OVC041 20/09 A3038 RMK A01
KGBK 101755Z AUTO VRB04KT 10SM OVC042 19/09 A3039 RMK A01
KGBK 101735Z AUTO 00000KT 10SM BKN041 20/09 A3040 RMK A01
KGBK 101715Z AUTO 00000KT 10SM BKN040 20/08 A3040 RMK A01
KGBK 101655Z AUTO 00000KT 10SM BKN041 19/08 A3040 RMK A01
KGBK 101635Z AUTO 00000KT 10SM CLR 19/08 A3041 RMK A01
KGBK 101615Z AUTO 00000KT 10SM CLR 19/08 A3041 RMK A01
KGBK 101555Z AUTO 00000KT 10SM FEW042 20/08 A3041 RMK A01
KGBK 101535Z AUTO 00000KT 10SM BKN041 20/08 A3041 RMK A01
KGBK 101515Z AUTO VRB04KT 10SM BKN043 18/08 A3041 RMK A01
KGBK 101455Z AUTO 00000KT 10SM BKN043 OVC048 18/08 A3040 RMK A01
KGBK 101435Z AUTO 00000KT 10SM OVC047 18/08 A3040 RMK A01
KGBK 101415Z AUTO 00000KT 10SM FEW041 OVC048 17/08 A3039 RMK A01
KGBK 101355Z AUTO 00000KT 10SM OVC047 17/08 A3039 RMK A01
KGBK 101335Z AUTO 05005KT 10SM OVC049 17/07 A3038 RMK A01
KGBK 101315Z AUTO VRB04KT 10SM BKN050 17/06 A3037 RMK A01
KGBK 101255Z AUTO 00000G11KT 10SM OVC049 17/06 A3037 RMK A01
KGBK 101235Z AUTO 00000KT 10SM OVC050 17/06 A3036 RMK A01
KGBK 101215Z AUTO 00000KT 10SM BKN045 OVC050 17/07 A3035 RMK A01
KGBK 101155Z AUTO VRB03KT 10SM BKN046 OVC050 17/07 A3034 RMK A01
KGBK 101135Z AUTO VRB05G10KT 10SM OVC049 17/07 A3034 RMK A01
KGBK 101115Z AUTO VRB03KT 10SM BKN047 17/07 A3033 RMK A01
KGBK 101055Z AUTO 00000KT 10SM BKN047 BKN055 17/07 A3033 RMK A01
KGBK 101035Z AUTO VRB04G11KT 10SM BKN048 OVC055 17/07 A3033 RMK A01
KGBK 101015Z AUTO 00000KT 10SM OVC048 17/06 A3033 RMK A01
KGBK 100955Z AUTO 00000G10KT 10SM OVC048 17/06 A3032 RMK A01
KGBK 100935Z AUTO VRB05G11KT 10SM OVC048 17/06 A3031 RMK A01
KGBK 100915Z AUTO 00000KT 10SM BKN048 17/07 A3032 RMK A01
KGBK 100855Z AUTO VRB06G12KT 10SM BKN049 17/06 A3031 RMK A01
KGBK 100835Z AUTO 00000G16KT 10SM BKN050 17/06 A3031 RMK A01
KGBK 100815Z AUTO VRB09G16KT 10SM OVC050 17/06 A3031 RMK A01
KGBK 100755Z AUTO 00000G14KT 10SM BKN050 OVC055 17/06 A3032 RMK A01
KGBK 100735Z AUTO 34012KT 10SM OVC050 17/06 A3033 RMK A01
KGBK 100715Z AUTO VRB05G17KT 10SM BKN050 17/06 A3033 RMK A01
KGBK 100655Z AUTO VRB04G17KT 10SM OVC055 17/06 A3032 RMK A01
KGBK 100635Z AUTO 35009G15KT 320V050 10SM OVC050 17/05 A3032 RMK A01
KGBK 100615Z AUTO 33012G17KT 10SM BKN050 17/06 A3032 RMK A01
KGBK 100555Z AUTO 32009G16KT 290V350 10SM BKN050 17/05 A3032 RMK A01
KGBK 100535Z AUTO 34010G17KT 10SM BKN050 17/06 A3032 RMK A01
KGBK 100515Z AUTO 33011G17KT 10SM SCT050 SCT055 17/05 A3032 RMK A01
KGBK 100455Z AUTO 33011G19KT 10SM BKN050 BKN055 17/05 A3032 RMK A01
KGBK 100435Z AUTO 33010G15KT 10SM BKN050 17/06 A3032 RMK A01
KGBK 100415Z AUTO 33011KT 10SM SCT050 18/06 A3032 RMK A01
KGBK 100355Z AUTO 32010G15KT 10SM BKN050 18/06 A3032 RMK A01
KGBK 100335Z AUTO 32013KT 10SM BKN050 17/05 A3031 RMK A01
KGBK 100315Z AUTO 31011G17KT 10SM SCT050 18/05 A3031 RMK A01